createdAt,value
2022-10-15T00:00:18.146Z,63.44
2022-10-15T00:02:47.342Z,62.77
2022-10-15T00:05:16.673Z,62.55
2022-10-15T00:07:45.915Z,62.57
2022-10-15T00:10:17.210Z,62.04
2022-10-15T00:12:46.706Z,62.40
2022-10-15T00:15:16.138Z,62.06
2022-10-15T00:17:45.326Z,61.31
2022-10-15T00:20:14.951Z,61.45
2022-10-15T00:22:44.225Z,61.66
2022-10-15T00:25:13.374Z,61.54
2022-10-15T00:27:43.908Z,61.63
2022-10-15T00:30:14.537Z,61.59
2022-10-15T00:32:43.786Z,61.65
2022-10-15T00:35:12.937Z,62.10
2022-10-15T00:37:44.198Z,61.96
2022-10-15T00:40:15.743Z,61.65
2022-10-15T00:42:46.264Z,61.57
2022-10-15T00:45:17.514Z,61.75
2022-10-15T00:47:50.428Z,61.63
2022-10-15T00:50:24.775Z,61.30
2022-10-15T00:53:02.350Z,61.75
2022-10-15T00:55:34.072Z,61.85
2022-10-15T00:58:10.418Z,62.71
2022-10-15T01:00:39.645Z,63.88
2022-10-15T01:03:09.381Z,64.29
2022-10-15T01:05:39.852Z,63.94
2022-10-15T01:08:13.314Z,64.15
2022-10-15T01:10:50.182Z,64.54
2022-10-15T01:13:34.918Z,64.67
2022-10-15T01:18:55.756Z,65.20
2022-10-15T01:21:33.941Z,65.26
2022-10-15T01:24:48.421Z,65.40
2022-10-15T01:27:27.496Z,65.08
2022-10-15T01:30:26.776Z,64.68
2022-10-15T01:33:14.835Z,65.01
2022-10-15T01:35:51.780Z,64.81
2022-10-15T01:38:38.350Z,64.28
2022-10-15T01:41:15.664Z,64.04
2022-10-15T01:43:51.789Z,64.15
2022-10-15T01:46:54.023Z,63.71
2022-10-15T01:49:30.082Z,64.16
2022-10-15T01:52:03.469Z,64.07
2022-10-15T01:54:33.080Z,63.88
2022-10-15T01:57:04.312Z,63.66
2022-10-15T01:59:35.239Z,63.52
2022-10-15T02:02:07.557Z,63.29
2022-10-15T02:04:38.315Z,63.87
2022-10-15T02:07:10.762Z,64.13
2022-10-15T02:09:52.459Z,64.51
2022-10-15T02:12:39.290Z,65.26
2022-10-15T02:15:17.809Z,65.05
2022-10-15T02:18:02.434Z,65.55
2022-10-15T02:20:41.724Z,66.53
2022-10-15T02:23:19.732Z,66.69
2022-10-15T02:25:53.394Z,66.50
2022-10-15T02:28:25.990Z,67.04
2022-10-15T02:30:58.550Z,67.88
2022-10-15T02:33:31.191Z,69.47
2022-10-15T02:36:01.270Z,70.64
2022-10-15T02:38:34.869Z,72.25
2022-10-15T02:41:04.599Z,72.83
2022-10-15T02:43:33.796Z,73.62
2022-10-15T02:46:02.980Z,73.94
2022-10-15T02:48:33.651Z,74.01
2022-10-15T02:51:02.823Z,73.98
2022-10-15T02:53:35.329Z,75.65
2022-10-15T02:56:06.636Z,75.62
2022-10-15T02:58:35.989Z,77.08
2022-10-15T03:01:06.156Z,77.54
2022-10-15T03:03:37.176Z,79.05
2022-10-15T03:06:07.773Z,77.95
2022-10-15T03:08:37.103Z,77.97
2022-10-15T03:11:06.961Z,77.78
2022-10-15T03:13:38.465Z,78.72
2022-10-15T03:16:09.593Z,79.64
2022-10-15T03:18:41.346Z,79.77
2022-10-15T03:21:12.554Z,80.06
2022-10-15T03:23:42.325Z,78.88
2022-10-15T03:26:19.815Z,79.40
2022-10-15T03:28:49.190Z,80.07
2022-10-15T03:31:31.511Z,80.59
2022-10-15T03:34:05.551Z,80.36
2022-10-15T03:36:35.020Z,80.64
2022-10-15T03:39:08.452Z,80.77
2022-10-15T03:41:38.951Z,81.36
2022-10-15T03:44:10.108Z,81.37
2022-10-15T03:46:44.269Z,80.19
2022-10-15T03:49:15.307Z,80.23
2022-10-15T03:51:44.539Z,79.58
2022-10-15T03:54:14.595Z,79.96
2022-10-15T03:56:50.660Z,80.20
2022-10-15T03:59:31.953Z,79.70
2022-10-15T04:02:04.212Z,79.59
2022-10-15T04:04:36.403Z,79.86
2022-10-15T04:07:05.973Z,79.28
2022-10-15T04:09:36.086Z,79.87
2022-10-15T04:12:28.503Z,80.12
2022-10-15T04:14:58.548Z,80.39
2022-10-15T04:17:27.866Z,79.87
2022-10-15T04:19:58.618Z,79.74
2022-10-15T04:22:29.177Z,79.36
2022-10-15T04:25:02.662Z,78.60
2022-10-15T04:27:32.194Z,78.53
2022-10-15T04:30:09.967Z,78.34
2022-10-15T04:32:42.812Z,78.19
2022-10-15T04:35:14.696Z,77.85
2022-10-15T04:38:15.821Z,77.47
2022-10-15T04:41:06.758Z,77.11
2022-10-15T04:43:50.098Z,77.38
2022-10-15T04:46:20.116Z,77.83
2022-10-15T04:48:49.679Z,77.08
2022-10-15T04:51:22.770Z,77.34
2022-10-15T04:54:17.825Z,77.13
2022-10-15T04:57:06.374Z,76.67
2022-10-15T04:59:35.697Z,76.96
2022-10-15T05:02:25.680Z,76.61
2022-10-15T05:05:11.030Z,76.41
2022-10-15T05:07:51.434Z,76.56
2022-10-15T05:10:20.876Z,76.81
2022-10-15T05:12:55.769Z,77.12
2022-10-15T05:15:32.363Z,77.03
2022-10-15T05:18:01.448Z,76.96
2022-10-15T05:20:38.573Z,76.94
2022-10-15T05:23:13.956Z,76.47
2022-10-15T05:25:51.676Z,77.18
2022-10-15T05:28:25.795Z,76.79
2022-10-15T05:30:55.132Z,76.94
2022-10-15T05:33:24.448Z,77.23
2022-10-15T05:35:53.975Z,77.28
2022-10-15T05:38:26.189Z,76.81
2022-10-15T05:40:55.440Z,77.09
2022-10-15T05:43:27.346Z,77.43
2022-10-15T05:45:56.638Z,77.30
2022-10-15T05:48:25.933Z,77.37
2022-10-15T05:50:55.640Z,77.17
2022-10-15T05:53:30.238Z,77.93
2022-10-15T05:56:09.347Z,78.19
2022-10-15T05:58:38.992Z,77.98
2022-10-15T06:01:11.412Z,77.85
2022-10-15T06:03:41.710Z,78.30
2022-10-15T06:06:19.278Z,78.16
2022-10-15T06:08:50.989Z,77.83
2022-10-15T06:11:20.952Z,77.35
2022-10-15T06:13:50.190Z,77.50
2022-10-15T06:16:23.572Z,77.65
2022-10-15T06:18:54.189Z,77.37
2022-10-15T06:21:23.449Z,77.24
2022-10-15T06:23:53.978Z,77.15
2022-10-15T06:26:23.251Z,76.73
2022-10-15T06:28:52.511Z,76.01
2022-10-15T06:31:21.845Z,75.61
2022-10-15T06:33:51.059Z,75.60
2022-10-15T06:36:21.810Z,75.21
2022-10-15T06:38:50.999Z,75.14
2022-10-15T06:41:21.530Z,74.91
2022-10-15T06:46:20.783Z,74.31
2022-10-15T06:48:51.949Z,74.19
2022-10-15T06:51:21.243Z,74.02
2022-10-15T06:53:52.725Z,73.93
2022-10-15T06:56:23.561Z,73.98
2022-10-15T06:58:53.153Z,73.87
2022-10-15T07:01:22.665Z,74.19
2022-10-15T07:03:52.538Z,74.09
2022-10-15T07:06:21.625Z,74.33
2022-10-15T07:08:50.825Z,74.29
2022-10-15T07:11:20.017Z,74.07
2022-10-15T07:13:50.612Z,73.77
2022-10-15T07:16:19.804Z,73.69
2022-10-15T07:18:50.072Z,73.57
2022-10-15T07:21:19.362Z,73.15
2022-10-15T07:23:48.570Z,73.30
2022-10-15T07:26:17.793Z,72.91
2022-10-15T07:28:47.160Z,73.45
2022-10-15T07:31:17.844Z,73.11
2022-10-15T07:33:47.156Z,73.04
2022-10-15T07:36:16.433Z,72.75
2022-10-15T07:38:45.598Z,72.79
2022-10-15T07:41:15.535Z,72.18
2022-10-15T07:43:45.921Z,72.24
2022-10-15T07:46:16.650Z,71.90
2022-10-15T07:48:46.001Z,71.82
2022-10-15T07:51:15.393Z,71.30
2022-10-15T07:53:45.190Z,71.00
2022-10-15T07:56:16.300Z,70.87
2022-10-15T07:58:51.770Z,70.77
2022-10-15T08:01:23.359Z,70.48
2022-10-15T08:03:53.013Z,70.35
2022-10-15T08:06:22.339Z,70.14
2022-10-15T08:08:51.673Z,70.00
2022-10-15T08:11:20.983Z,69.69
2022-10-15T08:13:50.345Z,69.57
2022-10-15T08:16:20.389Z,69.45
2022-10-15T08:19:01.425Z,69.49
2022-10-15T08:21:30.749Z,69.15
2022-10-15T08:24:01.060Z,69.42
2022-10-15T08:26:35.775Z,69.27
2022-10-15T08:29:05.224Z,68.80
2022-10-15T08:31:34.449Z,68.04
2022-10-15T08:34:05.133Z,68.01
2022-10-15T08:36:34.696Z,67.56
2022-10-15T08:39:03.948Z,67.45
2022-10-15T08:41:39.135Z,66.44
2022-10-15T08:44:16.329Z,66.02
2022-10-15T08:46:50.888Z,65.06
2022-10-15T08:49:36.351Z,61.85
2022-10-15T08:52:17.312Z,59.59
2022-10-15T08:54:46.833Z,58.09
2022-10-15T08:57:31.720Z,57.38
2022-10-15T09:00:06.707Z,58.15
2022-10-15T09:02:43.882Z,58.44
2022-10-15T09:05:30.380Z,59.00
2022-10-15T09:08:08.941Z,60.05
2022-10-15T09:10:47.616Z,60.21
2022-10-15T09:13:27.412Z,60.84
2022-10-15T09:16:01.530Z,61.19
2022-10-15T09:18:35.313Z,61.58
2022-10-15T09:21:07.216Z,61.84
2022-10-15T09:23:37.630Z,62.11
2022-10-15T09:26:18.545Z,61.63
2022-10-15T09:28:54.639Z,61.67
2022-10-15T09:31:34.363Z,62.58
2022-10-15T09:34:14.824Z,64.16
2022-10-15T09:36:52.006Z,66.75
2022-10-15T09:39:44.898Z,66.98
2022-10-15T09:42:28.629Z,67.69
2022-10-15T09:45:02.458Z,67.32
2022-10-15T09:47:34.884Z,66.88
2022-10-15T09:50:07.279Z,66.27
2022-10-15T09:52:59.481Z,65.19
2022-10-15T09:55:38.324Z,64.74
2022-10-15T09:58:15.827Z,64.75
2022-10-15T10:01:04.321Z,64.05
2022-10-15T10:03:38.365Z,62.89
2022-10-15T10:06:11.171Z,61.74
2022-10-15T10:08:53.662Z,61.00
2022-10-15T10:11:25.589Z,61.02
2022-10-15T10:13:58.352Z,60.45
2022-10-15T10:16:30.298Z,60.63
2022-10-15T10:19:13.879Z,60.64
2022-10-15T10:21:46.180Z,60.50
2022-10-15T10:24:30.773Z,60.20
2022-10-15T10:27:01.069Z,60.12
2022-10-15T10:29:34.419Z,59.64
2022-10-15T10:32:14.140Z,60.72
2022-10-15T10:34:51.519Z,60.85
2022-10-15T10:37:22.858Z,61.08
2022-10-15T10:40:00.133Z,61.49
2022-10-15T10:42:34.740Z,60.54
2022-10-15T10:45:23.237Z,60.17
2022-10-15T10:47:52.556Z,59.60
2022-10-15T10:50:33.630Z,56.50
2022-10-15T10:53:25.502Z,55.42
2022-10-15T10:55:58.710Z,52.56
2022-10-15T10:58:31.574Z,50.80
2022-10-15T11:01:00.877Z,48.71
2022-10-15T11:03:36.602Z,46.78
2022-10-15T11:06:57.471Z,46.11
2022-10-15T11:09:52.246Z,45.42
2022-10-15T11:12:52.370Z,44.35
2022-10-15T11:15:42.322Z,43.78
2022-10-15T11:18:34.212Z,43.37
2022-10-15T11:21:19.241Z,42.69
2022-10-15T11:24:16.129Z,42.27
2022-10-15T11:27:11.022Z,41.78
2022-10-15T11:29:56.343Z,41.60
2022-10-15T11:33:06.184Z,41.91
2022-10-15T11:35:59.537Z,41.43
2022-10-15T11:38:39.724Z,41.39
2022-10-15T11:41:32.307Z,41.64
2022-10-15T11:44:26.377Z,41.13
2022-10-15T11:47:23.459Z,40.24
2022-10-15T11:50:14.960Z,40.39
2022-10-15T11:53:04.229Z,39.97
2022-10-15T11:55:42.051Z,39.35
2022-10-15T11:58:17.953Z,39.09
2022-10-15T12:00:53.343Z,38.71
2022-10-15T12:03:28.303Z,38.75
2022-10-15T12:06:02.450Z,39.18
2022-10-15T12:08:38.547Z,40.16
2022-10-15T12:11:35.067Z,41.42
2022-10-15T12:14:21.605Z,42.41
2022-10-15T12:17:05.953Z,42.88
2022-10-15T12:19:44.432Z,43.45
2022-10-15T12:22:14.625Z,43.24
2022-10-15T12:24:56.534Z,43.80
2022-10-15T12:27:34.455Z,44.38
2022-10-15T12:30:27.951Z,45.63
2022-10-15T12:32:57.537Z,45.89
2022-10-15T12:35:36.684Z,47.67
2022-10-15T12:38:24.643Z,50.93
2022-10-15T12:41:06.423Z,54.43
2022-10-15T12:43:40.075Z,54.42
2022-10-15T12:46:12.341Z,56.77
2022-10-15T12:48:44.211Z,62.16
2022-10-15T12:51:42.106Z,66.63
2022-10-15T12:54:40.741Z,69.22
2022-10-15T12:57:55.532Z,72.22
2022-10-15T13:00:44.047Z,72.90
2022-10-15T13:03:27.032Z,73.70
2022-10-15T13:05:56.655Z,73.56
2022-10-15T13:08:47.003Z,72.20
2022-10-15T13:11:23.949Z,69.70
2022-10-15T13:13:59.703Z,68.92
2022-10-15T13:16:29.941Z,68.63
2022-10-15T13:19:00.619Z,67.56
2022-10-15T13:21:54.067Z,65.94
2022-10-15T13:24:28.171Z,65.70
2022-10-15T13:27:01.622Z,65.03
2022-10-15T13:29:30.979Z,63.15
2022-10-15T13:32:01.629Z,61.96
2022-10-15T13:34:34.787Z,59.49
2022-10-15T13:37:05.865Z,58.99
2022-10-15T13:39:40.418Z,56.65
2022-10-15T13:42:16.280Z,57.04
2022-10-15T13:44:57.185Z,54.08
2022-10-15T13:47:33.330Z,53.67
2022-10-15T13:50:30.826Z,52.22
2022-10-15T13:53:16.281Z,51.96
2022-10-15T13:55:50.828Z,51.12
2022-10-15T13:58:26.497Z,50.77
2022-10-15T14:01:01.500Z,51.57
2022-10-15T14:03:31.998Z,52.07
2022-10-15T14:06:17.919Z,53.71
2022-10-15T14:08:49.968Z,53.87
2022-10-15T14:11:21.801Z,54.39
2022-10-15T14:13:53.780Z,53.52
2022-10-15T14:16:29.277Z,53.97
2022-10-15T14:19:09.465Z,53.29
2022-10-15T14:21:47.294Z,54.66
2022-10-15T14:24:21.752Z,54.70
2022-10-15T14:26:52.511Z,54.54
2022-10-15T14:29:28.043Z,54.26
2022-10-15T14:31:57.583Z,54.43
2022-10-15T14:34:38.862Z,55.25
2022-10-15T14:37:43.160Z,54.90
2022-10-15T14:40:23.449Z,55.41
2022-10-15T14:43:05.549Z,53.71
2022-10-15T14:45:42.681Z,52.49
2022-10-15T14:48:20.076Z,51.17
2022-10-15T14:50:49.335Z,50.09
2022-10-15T14:53:25.801Z,48.50
2022-10-15T14:55:59.896Z,48.13
2022-10-15T14:58:31.928Z,47.44
2022-10-15T15:01:03.868Z,46.39
2022-10-15T15:03:42.133Z,45.67
2022-10-15T15:06:12.092Z,45.59
2022-10-15T15:08:41.251Z,46.24
2022-10-15T15:11:17.193Z,45.96
2022-10-15T15:13:48.680Z,45.58
2022-10-15T15:16:19.257Z,45.83
2022-10-15T15:18:48.989Z,45.61
2022-10-15T15:21:23.721Z,46.27
2022-10-15T15:23:53.093Z,46.75
2022-10-15T15:26:22.785Z,47.16
2022-10-15T15:28:53.838Z,47.43
2022-10-15T15:31:23.135Z,47.50
2022-10-15T15:33:52.350Z,47.82
2022-10-15T15:36:23.804Z,48.58
2022-10-15T15:38:58.637Z,49.34
2022-10-15T15:41:28.398Z,49.82
2022-10-15T15:44:00.425Z,50.80
2022-10-15T15:46:30.100Z,52.13
2022-10-15T15:49:00.004Z,52.39
2022-10-15T15:51:32.370Z,53.28
2022-10-15T15:54:04.713Z,54.27
2022-10-15T15:56:35.076Z,54.80
2022-10-15T15:59:06.002Z,54.32
2022-10-15T16:01:35.233Z,55.35
2022-10-15T16:04:04.436Z,55.08
2022-10-15T16:06:33.704Z,55.14
2022-10-15T16:09:02.919Z,54.75
2022-10-15T16:11:32.387Z,54.65
2022-10-15T16:14:03.714Z,54.32
2022-10-15T16:16:37.337Z,54.79
2022-10-15T16:19:07.466Z,54.65
2022-10-15T16:21:36.685Z,54.99
2022-10-15T16:24:07.109Z,55.58
2022-10-15T16:26:36.355Z,55.52
2022-10-15T16:29:05.647Z,55.68
2022-10-15T16:31:37.216Z,56.19
2022-10-15T16:34:06.560Z,56.48
2022-10-15T16:36:36.177Z,56.45
2022-10-15T16:39:05.938Z,56.32
2022-10-15T16:41:35.337Z,55.76
2022-10-15T16:44:04.632Z,55.63
2022-10-15T16:46:35.217Z,55.81
2022-10-15T16:49:04.739Z,55.51
2022-10-15T16:51:35.596Z,55.19
2022-10-15T16:54:06.444Z,55.72
2022-10-15T16:56:35.634Z,55.67
2022-10-15T16:59:04.964Z,56.00
2022-10-15T17:01:36.194Z,55.86
2022-10-15T17:04:05.889Z,55.86
2022-10-15T17:06:35.160Z,56.29
2022-10-15T17:09:05.168Z,56.42
2022-10-15T17:11:37.628Z,56.59
2022-10-15T17:14:10.999Z,57.18
2022-10-15T17:16:44.339Z,57.31
2022-10-15T17:19:19.536Z,58.16
2022-10-15T17:21:49.183Z,57.40
2022-10-15T17:24:20.596Z,57.73
2022-10-15T17:26:50.338Z,57.55
2022-10-15T17:29:23.332Z,57.22
2022-10-15T17:31:54.333Z,57.33
2022-10-15T17:34:23.645Z,56.52
2022-10-15T17:36:54.040Z,56.73
2022-10-15T17:39:23.655Z,56.80
2022-10-15T17:41:53.369Z,56.32
2022-10-15T17:44:22.944Z,55.99
2022-10-15T17:46:54.107Z,56.15
2022-10-15T17:49:30.384Z,56.08
2022-10-15T17:51:59.870Z,55.12
2022-10-15T17:54:29.199Z,55.26
2022-10-15T17:56:58.448Z,56.02
2022-10-15T17:59:27.666Z,56.33
2022-10-15T18:02:00.984Z,56.26
2022-10-15T18:04:32.062Z,56.59
2022-10-15T18:07:01.413Z,57.48
2022-10-15T18:09:30.910Z,57.65
2022-10-15T18:12:02.148Z,57.46
2022-10-15T18:14:33.763Z,57.68
2022-10-15T18:17:04.955Z,58.02
2022-10-15T18:19:34.158Z,57.81
2022-10-15T18:22:03.523Z,57.91
2022-10-15T18:24:33.213Z,58.34
2022-10-15T18:27:07.124Z,58.10
2022-10-15T18:29:36.634Z,58.55
2022-10-15T18:32:07.725Z,58.71
2022-10-15T18:34:37.023Z,58.31
2022-10-15T18:37:06.456Z,58.83
2022-10-15T18:39:35.814Z,58.59
2022-10-15T18:42:05.167Z,58.92
2022-10-15T18:44:34.758Z,58.64
2022-10-15T18:47:04.129Z,58.85
2022-10-15T18:49:38.898Z,59.90
2022-10-15T18:52:21.516Z,60.32
2022-10-15T18:54:57.538Z,60.59
2022-10-15T18:57:26.909Z,60.67
2022-10-15T18:59:56.383Z,61.02
2022-10-15T19:02:25.910Z,61.86
2022-10-15T19:04:56.933Z,61.31
2022-10-15T19:07:26.916Z,61.54
2022-10-15T19:10:00.688Z,61.61
2022-10-15T19:12:30.282Z,61.72
2022-10-15T19:14:59.526Z,61.81
2022-10-15T19:17:29.918Z,61.92
2022-10-15T19:20:00.493Z,61.79
2022-10-15T19:22:30.543Z,61.53
2022-10-15T19:25:00.541Z,61.90
2022-10-15T19:27:29.650Z,61.98
2022-10-15T19:29:58.862Z,62.54
2022-10-15T19:32:28.282Z,62.29
2022-10-15T19:34:57.656Z,62.91
2022-10-15T19:37:28.615Z,62.48
2022-10-15T19:39:57.929Z,63.15
2022-10-15T19:42:30.481Z,62.96
2022-10-15T19:44:59.908Z,63.17
2022-10-15T19:47:29.298Z,63.29
2022-10-15T19:49:58.678Z,63.49
2022-10-15T19:52:29.431Z,63.26
2022-10-15T19:54:58.570Z,62.99
2022-10-15T19:57:28.091Z,63.39
2022-10-15T19:59:57.428Z,63.26
2022-10-15T20:02:27.195Z,63.15
2022-10-15T20:04:56.329Z,63.21
2022-10-15T20:07:25.906Z,62.88
2022-10-15T20:09:56.769Z,62.95
2022-10-15T20:12:26.114Z,63.06
2022-10-15T20:14:55.305Z,63.24
2022-10-15T20:17:24.925Z,63.64
2022-10-15T20:19:54.613Z,63.70
2022-10-15T20:22:24.148Z,63.64
2022-10-15T20:24:53.957Z,63.61
2022-10-15T20:27:25.369Z,64.11
2022-10-15T20:29:54.683Z,63.84
2022-10-15T20:32:34.149Z,63.78
2022-10-15T20:35:05.892Z,64.30
2022-10-15T20:37:35.103Z,63.67
2022-10-15T20:40:05.112Z,63.87
2022-10-15T20:42:37.812Z,64.10
2022-10-15T20:45:08.071Z,64.06
2022-10-15T20:47:42.189Z,64.12
2022-10-15T20:50:18.300Z,64.17
2022-10-15T20:52:48.868Z,63.82
2022-10-15T20:55:18.729Z,63.82
2022-10-15T20:57:49.616Z,64.93
2022-10-15T21:00:18.852Z,64.53
2022-10-15T21:02:48.054Z,64.75
2022-10-15T21:05:17.579Z,65.12
2022-10-15T21:07:46.819Z,65.26
2022-10-15T21:10:16.376Z,65.35
2022-10-15T21:12:45.857Z,65.53
2022-10-15T21:15:16.830Z,65.35
2022-10-15T21:17:46.070Z,66.06
2022-10-15T21:20:15.440Z,65.79
2022-10-15T21:22:44.700Z,66.03
2022-10-15T21:25:13.952Z,67.63
2022-10-15T21:27:43.145Z,68.69
2022-10-15T21:30:13.379Z,69.83
2022-10-15T21:32:44.053Z,71.62
2022-10-15T21:35:13.236Z,73.12
2022-10-15T21:37:42.520Z,72.72
2022-10-15T21:40:13.412Z,72.76
2022-10-15T21:42:42.561Z,73.17
2022-10-15T21:45:12.660Z,75.26
2022-10-15T21:47:43.269Z,75.67
2022-10-15T21:50:12.582Z,75.23
2022-10-15T21:52:42.019Z,76.17
2022-10-15T21:55:11.506Z,76.24
2022-10-15T21:57:40.728Z,76.06
2022-10-15T22:00:16.241Z,76.59
2022-10-15T22:02:51.703Z,76.43
2022-10-15T22:05:20.892Z,76.22
2022-10-15T22:07:50.140Z,75.95
2022-10-15T22:10:19.534Z,75.99
2022-10-15T22:12:53.574Z,75.40
2022-10-15T22:15:22.806Z,75.42
2022-10-15T22:17:53.486Z,75.27
2022-10-15T22:20:23.948Z,74.83
2022-10-15T22:22:55.274Z,74.84
2022-10-15T22:25:24.571Z,74.28
2022-10-15T22:27:54.297Z,74.37
2022-10-15T22:30:23.557Z,74.73
2022-10-15T22:32:54.903Z,74.57
2022-10-15T22:35:24.182Z,75.12
2022-10-15T22:37:55.339Z,74.93
2022-10-15T22:40:24.658Z,74.98
2022-10-15T22:42:53.855Z,75.46
2022-10-15T22:45:23.157Z,75.44
2022-10-15T22:47:53.917Z,75.44
2022-10-15T22:50:23.606Z,75.81
2022-10-15T22:52:52.879Z,75.53
2022-10-15T22:55:22.069Z,75.82
2022-10-15T22:57:52.462Z,75.76
2022-10-15T23:00:22.173Z,75.93
2022-10-15T23:02:51.501Z,75.83
2022-10-15T23:05:22.232Z,76.03
2022-10-15T23:07:51.479Z,76.36
2022-10-15T23:10:20.726Z,76.24
2022-10-15T23:12:49.998Z,76.21
2022-10-15T23:15:19.377Z,75.88
2022-10-15T23:17:48.639Z,75.40
2022-10-15T23:20:17.843Z,75.10
2022-10-15T23:22:48.638Z,75.43
2022-10-15T23:25:17.913Z,75.04
2022-10-15T23:27:47.133Z,74.66
2022-10-15T23:30:24.624Z,74.96
2022-10-15T23:32:54.332Z,75.10
2022-10-15T23:35:23.574Z,74.98
2022-10-15T23:37:54.430Z,75.21
2022-10-15T23:40:23.581Z,75.07
2022-10-15T23:42:52.979Z,74.52
2022-10-15T23:45:22.359Z,74.53
2022-10-15T23:47:51.736Z,74.52
2022-10-15T23:50:21.429Z,74.08
2022-10-15T23:52:50.681Z,74.24
2022-10-15T23:55:21.264Z,74.49
2022-10-15T23:57:50.911Z,73.98
